createdAt,value
2019-06-20T00:02:00.445Z,100278.08
2019-06-20T00:04:28.870Z,100272.56
2019-06-20T00:06:57.299Z,100281.83
2019-06-20T00:09:25.708Z,100286.38
2019-06-20T00:11:54.161Z,100289.95
2019-06-20T00:14:22.595Z,100286.75
2019-06-20T00:16:51.032Z,100277.21
2019-06-20T00:19:19.449Z,100277.85
2019-06-20T00:21:47.901Z,100271.70
2019-06-20T00:24:16.315Z,100281.62
2019-06-20T00:26:44.765Z,100283.50
2019-06-20T00:29:13.181Z,100277.08
2019-06-20T00:31:41.627Z,100282.78
2019-06-20T00:34:10.044Z,100279.70
2019-06-20T00:36:38.468Z,100270.25
2019-06-20T00:39:08.209Z,100274.88
2019-06-20T00:41:36.986Z,100281.19
2019-06-20T00:44:08.730Z,100282.88
2019-06-20T00:46:37.143Z,100283.86
2019-06-20T00:49:05.576Z,100291.91
2019-06-20T00:51:34.069Z,100295.77
2019-06-20T00:54:02.599Z,100296.45
2019-06-20T00:56:31.099Z,100305.83
2019-06-20T00:58:59.532Z,100309.13
2019-06-20T01:01:27.964Z,100308.61
2019-06-20T01:03:56.405Z,100315.08
2019-06-20T01:06:24.853Z,100314.05
2019-06-20T01:08:53.298Z,100319.97
2019-06-20T01:11:21.734Z,100315.48
2019-06-20T01:13:52.809Z,100319.80
2019-06-20T01:16:20.377Z,100322.55
2019-06-20T01:18:48.825Z,100327.72
2019-06-20T01:21:17.333Z,100329.91
2019-06-20T01:23:45.753Z,100326.07
2019-06-20T01:26:14.171Z,100326.34
2019-06-20T01:28:42.702Z,100327.23
2019-06-20T01:31:11.112Z,100325.86
2019-06-20T01:33:39.570Z,100328.92
2019-06-20T01:36:07.976Z,100331.44
2019-06-20T01:38:36.419Z,100340.92
2019-06-20T01:41:06.156Z,100339.73
2019-06-20T01:43:49.505Z,100347.02
2019-06-20T01:46:05.175Z,100347.27
2019-06-20T01:48:33.625Z,100338.72
2019-06-20T01:51:02.131Z,100345.14
2019-06-20T01:53:30.592Z,100354.51
2019-06-20T01:55:59.020Z,100354.89
2019-06-20T01:58:27.480Z,100355.18
2019-06-20T02:00:56.072Z,100358.39
2019-06-20T02:03:24.503Z,100366.09
2019-06-20T02:05:52.980Z,100362.47
2019-06-20T02:08:21.419Z,100366.55
2019-06-20T02:10:49.980Z,100368.98
2019-06-20T02:13:18.423Z,100373.03
2019-06-20T02:15:46.878Z,100379.69
2019-06-20T02:18:15.438Z,100371.08
2019-06-20T02:20:52.394Z,100378.88
2019-06-20T02:23:22.061Z,100380.86
2019-06-20T02:25:50.642Z,100386.28
2019-06-20T02:28:19.092Z,100386.55
2019-06-20T02:30:48.680Z,100388.61
2019-06-20T02:33:17.275Z,100386.70
2019-06-20T02:35:45.717Z,100384.92
2019-06-20T02:38:14.182Z,100395.31
2019-06-20T02:40:42.722Z,100398.13
2019-06-20T02:43:11.156Z,100397.65
2019-06-20T02:45:39.730Z,100396.10
2019-06-20T02:48:08.307Z,100397.50
2019-06-20T02:50:36.894Z,100398.12
2019-06-20T02:53:06.065Z,100402.19
2019-06-20T02:55:34.656Z,100405.28
2019-06-20T02:58:03.091Z,100402.87
2019-06-20T03:00:37.288Z,100401.41
2019-06-20T03:03:05.667Z,100402.38
2019-06-20T03:05:34.112Z,100401.94
2019-06-20T03:08:02.546Z,100402.70
2019-06-20T03:10:30.977Z,100403.04
2019-06-20T03:12:59.421Z,100407.66
2019-06-20T03:15:27.856Z,100407.97
2019-06-20T03:17:56.284Z,100410.16
2019-06-20T03:20:24.726Z,100410.89
2019-06-20T03:22:53.172Z,100412.64
2019-06-20T03:25:21.723Z,100411.30
2019-06-20T03:27:50.140Z,100415.44
2019-06-20T03:30:18.658Z,100418.71
2019-06-20T03:32:47.101Z,100412.15
2019-06-20T03:35:15.614Z,100410.36
2019-06-20T03:37:44.050Z,100409.41
2019-06-20T03:40:12.767Z,100413.95
2019-06-20T03:42:41.195Z,100415.22
2019-06-20T03:45:09.715Z,100418.38
2019-06-20T03:47:38.138Z,100420.27
2019-06-20T03:50:07.516Z,100423.34
2019-06-20T03:52:35.967Z,100416.82
2019-06-20T03:55:06.506Z,100418.98
2019-06-20T03:57:34.953Z,100417.66
2019-06-20T04:00:05.068Z,100423.66
2019-06-20T04:02:33.509Z,100418.86
2019-06-20T04:05:01.928Z,100429.47
2019-06-20T04:07:30.414Z,100428.64
2019-06-20T04:09:58.816Z,100422.30
2019-06-20T04:12:27.309Z,100427.02
2019-06-20T04:14:55.747Z,100427.96
2019-06-20T04:17:24.174Z,100437.41
2019-06-20T04:19:52.606Z,100439.34
2019-06-20T04:22:21.058Z,100444.03
2019-06-20T04:24:49.503Z,100443.58
2019-06-20T04:27:17.918Z,100442.89
2019-06-20T04:29:46.399Z,100448.47
2019-06-20T04:32:14.817Z,100454.27
2019-06-20T04:34:43.242Z,100455.59
2019-06-20T04:37:12.981Z,100455.62
2019-06-20T04:39:41.403Z,100464.52
2019-06-20T04:42:09.844Z,100476.77
2019-06-20T04:44:38.354Z,100471.73
2019-06-20T04:47:08.444Z,100475.14
2019-06-20T04:49:36.876Z,100478.11
2019-06-20T04:52:05.408Z,100488.16
2019-06-20T04:54:33.818Z,100482.47
2019-06-20T04:57:02.274Z,100482.91
2019-06-20T04:59:30.713Z,100486.59
2019-06-20T05:01:59.153Z,100486.26
2019-06-20T05:04:27.585Z,100493.93
2019-06-20T05:07:04.951Z,100492.23
2019-06-20T05:09:33.383Z,100495.11
2019-06-20T05:12:01.847Z,100504.34
2019-06-20T05:14:30.314Z,100506.93
2019-06-20T05:16:58.742Z,100513.94
2019-06-20T05:19:27.171Z,100515.83
2019-06-20T05:21:55.594Z,100516.02
2019-06-20T05:24:25.654Z,100514.13
2019-06-20T05:26:54.155Z,100520.69
2019-06-20T05:29:22.587Z,100520.41
2019-06-20T05:31:51.024Z,100521.83
2019-06-20T05:34:19.468Z,100523.55
2019-06-20T05:36:47.983Z,100519.72
2019-06-20T05:39:16.433Z,100530.14
2019-06-20T05:41:44.885Z,100531.02
2019-06-20T05:44:13.306Z,100538.03
2019-06-20T05:46:41.741Z,100535.68
2019-06-20T05:49:10.175Z,100535.73
2019-06-20T05:51:39.835Z,100537.78
2019-06-20T05:54:08.423Z,100537.55
2019-06-20T05:56:36.923Z,100534.30
2019-06-20T05:59:05.408Z,100531.76
2019-06-20T06:01:33.824Z,100537.65
2019-06-20T06:04:02.263Z,100533.98
2019-06-20T06:06:30.681Z,100529.28
2019-06-20T06:08:59.141Z,100535.56
2019-06-20T06:11:27.567Z,100537.34
2019-06-20T06:13:56.251Z,100535.51
2019-06-20T06:16:27.317Z,100542.37
2019-06-20T06:18:55.088Z,100535.96
2019-06-20T06:21:23.507Z,100538.39
2019-06-20T06:23:51.971Z,100537.61
2019-06-20T06:26:20.403Z,100533.43
2019-06-20T06:28:48.840Z,100538.33
2019-06-20T06:31:17.265Z,100544.36
2019-06-20T06:33:45.701Z,100545.30
2019-06-20T06:36:14.154Z,100540.38
2019-06-20T06:38:42.657Z,100538.66
2019-06-20T06:41:11.088Z,100544.08
2019-06-20T06:43:41.923Z,100549.00
2019-06-20T06:46:09.695Z,100540.97
2019-06-20T06:48:38.135Z,100543.88
2019-06-20T06:51:06.626Z,100544.38
2019-06-20T06:53:35.087Z,100549.37
2019-06-20T06:56:03.561Z,100548.13
2019-06-20T06:58:32.037Z,100551.16
2019-06-20T07:01:00.475Z,100552.98
2019-06-20T07:03:28.893Z,100549.94
2019-06-20T07:05:57.334Z,100545.89
2019-06-20T07:08:25.756Z,100548.52
2019-06-20T07:10:54.195Z,100552.88
2019-06-20T07:13:22.805Z,100550.25
2019-06-20T07:15:51.202Z,100558.83
2019-06-20T07:18:19.640Z,100559.26
2019-06-20T07:20:48.061Z,100562.72
2019-06-20T07:23:16.690Z,100560.48
2019-06-20T07:25:45.265Z,100560.55
2019-06-20T07:28:13.679Z,100563.45
2019-06-20T07:30:42.136Z,100569.91
2019-06-20T07:33:13.540Z,100568.09
2019-06-20T07:35:42.110Z,100565.83
2019-06-20T07:38:10.573Z,100568.88
2019-06-20T07:40:39.057Z,100575.19
2019-06-20T07:43:07.450Z,100573.81
2019-06-20T07:45:35.951Z,100571.18
2019-06-20T07:48:04.909Z,100581.81
2019-06-20T07:50:33.350Z,100574.94
2019-06-20T07:53:02.870Z,100585.52
2019-06-20T07:55:31.598Z,100586.18
2019-06-20T07:58:00.024Z,100587.62
2019-06-20T08:00:28.599Z,100586.86
2019-06-20T08:02:57.122Z,100583.84
2019-06-20T08:05:25.689Z,100585.05
2019-06-20T08:07:54.119Z,100593.33
2019-06-20T08:10:23.262Z,100595.42
2019-06-20T08:12:51.669Z,100590.77
2019-06-20T08:15:20.939Z,100596.10
2019-06-20T08:17:49.412Z,100596.19
2019-06-20T08:20:19.424Z,100603.45
2019-06-20T08:22:47.859Z,100601.84
2019-06-20T08:25:18.968Z,100598.83
2019-06-20T08:27:49.005Z,100596.25
2019-06-20T08:30:18.395Z,100597.56
2019-06-20T08:32:46.833Z,100591.94
2019-06-20T08:35:15.489Z,100598.43
2019-06-20T08:37:43.992Z,100603.78
2019-06-20T08:40:12.776Z,100604.14
2019-06-20T08:42:41.234Z,100606.80
2019-06-20T08:45:10.497Z,100611.19
2019-06-20T08:47:39.730Z,100609.74
2019-06-20T08:50:09.080Z,100608.88
2019-06-20T08:52:37.516Z,100601.17
2019-06-20T08:55:09.505Z,100603.48
2019-06-20T08:57:38.032Z,100593.45
2019-06-20T09:00:11.864Z,100593.79
2019-06-20T09:02:40.303Z,100598.06
2019-06-20T09:05:08.975Z,100596.36
2019-06-20T09:07:37.552Z,100602.94
2019-06-20T09:10:07.220Z,100608.34
2019-06-20T09:12:35.829Z,100607.00
2019-06-20T09:15:08.981Z,100603.75
2019-06-20T09:17:37.454Z,100606.73
2019-06-20T09:20:10.440Z,100607.28
2019-06-20T09:22:39.019Z,100600.46
2019-06-20T09:25:08.605Z,100594.78
2019-06-20T09:27:37.637Z,100607.50
2019-06-20T09:30:08.048Z,100599.66
2019-06-20T09:32:36.700Z,100597.58
2019-06-20T09:35:09.774Z,100602.90
2019-06-20T09:37:51.765Z,100602.56
2019-06-20T09:40:35.395Z,100603.37
2019-06-20T09:43:03.909Z,100599.00
2019-06-20T09:45:34.313Z,100606.27
2019-06-20T09:48:02.870Z,100609.24
2019-06-20T09:50:31.351Z,100609.73
2019-06-20T09:52:59.848Z,100607.22
2019-06-20T09:55:28.269Z,100602.11
2019-06-20T09:57:58.365Z,100612.16
2019-06-20T10:00:28.716Z,100607.61
2019-06-20T10:02:57.814Z,100604.08
2019-06-20T10:05:26.671Z,100612.70
2019-06-20T10:07:56.470Z,100616.87
2019-06-20T10:10:28.499Z,100602.39
2019-06-20T10:12:57.483Z,100605.22
2019-06-20T10:15:33.781Z,100611.61
2019-06-20T10:18:02.287Z,100609.00
2019-06-20T10:20:30.762Z,100608.47
2019-06-20T10:22:59.297Z,100609.38
2019-06-20T10:25:27.786Z,100608.31
2019-06-20T10:27:57.671Z,100607.36
2019-06-20T10:30:27.096Z,100606.73
2019-06-20T10:32:55.524Z,100611.78
2019-06-20T10:35:24.089Z,100625.31
2019-06-20T10:37:53.046Z,100615.27
2019-06-20T10:40:23.598Z,100620.53
2019-06-20T10:42:52.998Z,100622.84
2019-06-20T10:45:25.243Z,100624.25
2019-06-20T10:47:55.885Z,100622.63
2019-06-20T10:50:26.402Z,100623.26
2019-06-20T10:52:57.473Z,100634.88
2019-06-20T10:55:29.371Z,100625.22
2019-06-20T10:57:57.972Z,100631.25
2019-06-20T11:00:31.330Z,100637.02
2019-06-20T11:02:57.542Z,100633.91
2019-06-20T11:05:26.037Z,100629.29
2019-06-20T11:07:54.506Z,100632.32
2019-06-20T11:10:25.064Z,100629.98
2019-06-20T11:12:56.056Z,100633.78
2019-06-20T11:15:23.894Z,100636.83
2019-06-20T11:17:55.345Z,100641.09
2019-06-20T11:20:23.952Z,100639.66
2019-06-20T11:22:52.445Z,100639.66
2019-06-20T11:25:25.192Z,100643.61
2019-06-20T11:27:53.596Z,100638.20
2019-06-20T11:30:44.787Z,100630.70
2019-06-20T11:33:00.974Z,100631.34
2019-06-20T11:35:31.648Z,100626.30
2019-06-20T11:38:01.433Z,100622.78
2019-06-20T11:40:35.382Z,100638.09
2019-06-20T11:43:03.528Z,100623.47
2019-06-20T11:45:31.959Z,100629.93
2019-06-20T11:48:00.377Z,100635.95
2019-06-20T11:50:29.362Z,100620.91
2019-06-20T11:52:57.781Z,100641.72
2019-06-20T11:55:26.208Z,100640.11
2019-06-20T11:57:54.632Z,100644.61
2019-06-20T12:00:23.369Z,100637.66
2019-06-20T12:02:51.804Z,100643.73
2019-06-20T12:05:20.480Z,100643.00
2019-06-20T12:07:50.055Z,100639.91
2019-06-20T12:10:18.985Z,100641.03
2019-06-20T12:12:48.970Z,100638.70
2019-06-20T12:15:19.565Z,100641.07
2019-06-20T12:17:49.360Z,100639.38
2019-06-20T12:20:18.391Z,100637.27
2019-06-20T12:22:46.867Z,100641.21
2019-06-20T12:25:15.828Z,100635.55
2019-06-20T12:27:45.410Z,100640.20
2019-06-20T12:30:15.936Z,100644.63
2019-06-20T12:32:44.724Z,100654.05
2019-06-20T12:35:14.616Z,100658.65
2019-06-20T12:37:43.069Z,100652.03
2019-06-20T12:40:12.565Z,100655.27
2019-06-20T12:42:42.791Z,100657.32
2019-06-20T12:45:13.105Z,100660.37
2019-06-20T12:47:41.909Z,100658.92
2019-06-20T12:50:11.285Z,100660.14
2019-06-20T12:52:41.276Z,100664.91
2019-06-20T12:55:11.136Z,100666.23
2019-06-20T12:57:40.431Z,100663.96
2019-06-20T13:00:11.317Z,100664.95
2019-06-20T13:02:40.448Z,100663.06
2019-06-20T13:05:10.059Z,100659.14
2019-06-20T13:07:39.240Z,100667.20
2019-06-20T13:10:08.873Z,100666.42
2019-06-20T13:12:37.298Z,100666.23
2019-06-20T13:15:06.262Z,100668.34
2019-06-20T13:17:34.778Z,100669.53
2019-06-20T13:20:04.473Z,100672.13
2019-06-20T13:22:32.888Z,100673.66
2019-06-20T13:25:01.286Z,100673.69
2019-06-20T13:27:29.722Z,100681.63
2019-06-20T13:29:58.134Z,100677.02
2019-06-20T13:32:26.565Z,100675.95
2019-06-20T13:34:54.991Z,100679.95
2019-06-20T13:37:23.438Z,100686.22
2019-06-20T13:39:51.870Z,100685.92
2019-06-20T13:42:20.303Z,100678.20
2019-06-20T13:44:48.720Z,100675.27
2019-06-20T13:47:17.147Z,100677.31
2019-06-20T13:49:45.823Z,100679.58
2019-06-20T13:52:14.369Z,100674.98
2019-06-20T13:54:43.416Z,100679.02
2019-06-20T13:57:13.189Z,100673.27
2019-06-20T13:59:41.792Z,100676.23
2019-06-20T14:02:10.215Z,100672.32
2019-06-20T14:04:41.029Z,100672.91
2019-06-20T14:07:08.808Z,100667.20
2019-06-20T14:09:38.631Z,100675.41
2019-06-20T14:12:07.113Z,100672.70
2019-06-20T14:14:35.558Z,100669.56
2019-06-20T14:17:03.968Z,100676.69
2019-06-20T14:19:32.408Z,100669.33
2019-06-20T14:22:00.828Z,100667.87
2019-06-20T14:24:29.345Z,100673.38
2019-06-20T14:26:58.483Z,100672.02
2019-06-20T14:29:26.993Z,100678.78
2019-06-20T14:31:55.413Z,100670.33
2019-06-20T14:34:23.854Z,100673.42
2019-06-20T14:36:53.707Z,100670.56
2019-06-20T14:39:22.477Z,100670.95
2019-06-20T14:41:51.424Z,100668.03
2019-06-20T14:44:20.073Z,100669.22
2019-06-20T14:46:48.495Z,100668.28
2019-06-20T14:49:16.934Z,100667.16
2019-06-20T14:51:46.718Z,100664.47
2019-06-20T14:54:15.571Z,100658.64
2019-06-20T14:56:44.988Z,100657.13
2019-06-20T14:59:14.162Z,100665.14
2019-06-20T15:01:44.579Z,100663.42
2019-06-20T15:04:12.738Z,100661.75
2019-06-20T15:06:41.159Z,100670.28
2019-06-20T15:09:09.590Z,100659.73
2019-06-20T15:11:38.033Z,100662.09
2019-06-20T15:14:06.532Z,100668.13
2019-06-20T15:16:34.955Z,100662.84
2019-06-20T15:19:03.383Z,100663.67
2019-06-20T15:21:31.807Z,100663.66
2019-06-20T15:24:00.242Z,100664.28
2019-06-20T15:26:28.763Z,100670.53
2019-06-20T15:28:57.204Z,100673.08
2019-06-20T15:31:25.622Z,100669.02
2019-06-20T15:33:55.155Z,100665.88
2019-06-20T15:36:23.633Z,100665.16
2019-06-20T15:38:53.016Z,100660.80
2019-06-20T15:41:21.644Z,100667.20
2019-06-20T15:43:51.647Z,100662.08
2019-06-20T15:46:20.148Z,100668.16
2019-06-20T15:48:48.566Z,100658.91
2019-06-20T15:51:16.992Z,100656.66
2019-06-20T15:53:45.422Z,100659.00
2019-06-20T15:56:13.855Z,100658.03
2019-06-20T15:58:42.319Z,100670.10
2019-06-20T16:01:10.710Z,100662.90
2019-06-20T16:03:39.131Z,100671.91
2019-06-20T16:06:07.564Z,100669.78
2019-06-20T16:08:35.991Z,100674.00
2019-06-20T16:11:04.561Z,100678.23
2019-06-20T16:13:32.997Z,100672.20
2019-06-20T16:16:01.524Z,100677.55
2019-06-20T16:18:29.936Z,100673.85
2019-06-20T16:20:58.380Z,100677.36
2019-06-20T16:23:26.800Z,100676.72
2019-06-20T16:25:55.247Z,100693.45
2019-06-20T16:28:23.655Z,100691.36
2019-06-20T16:31:07.681Z,100690.88
2019-06-20T16:33:25.490Z,100701.73
2019-06-20T16:35:52.393Z,100700.41
2019-06-20T16:38:20.818Z,100697.92
2019-06-20T16:40:49.824Z,100693.17
2019-06-20T16:43:18.221Z,100692.70
2019-06-20T16:45:46.646Z,100700.01
2019-06-20T16:48:15.068Z,100703.17
2019-06-20T16:50:43.501Z,100702.55
2019-06-20T16:53:11.988Z,100696.24
2019-06-20T16:55:40.502Z,100701.80
2019-06-20T16:58:09.046Z,100690.56
2019-06-20T17:00:37.610Z,100692.13
2019-06-20T17:03:06.568Z,100697.21
2019-06-20T17:05:35.169Z,100698.68
2019-06-20T17:08:04.363Z,100692.23
2019-06-20T17:10:32.782Z,100691.24
2019-06-20T17:13:01.217Z,100695.06
2019-06-20T17:15:29.685Z,100701.16
2019-06-20T17:17:58.111Z,100703.88
2019-06-20T17:20:26.704Z,100709.58
2019-06-20T17:22:55.129Z,100718.90
2019-06-20T17:25:23.784Z,100728.42
2019-06-20T17:27:52.239Z,100744.57
2019-06-20T17:30:21.987Z,100755.27
2019-06-20T17:32:50.595Z,100751.44
2019-06-20T17:35:19.762Z,100754.88
2019-06-20T17:37:48.205Z,100754.21
2019-06-20T17:40:17.901Z,100757.13
2019-06-20T17:42:46.465Z,100762.50
2019-06-20T17:45:15.435Z,100758.30
2019-06-20T17:47:43.860Z,100768.69
2019-06-20T17:50:14.080Z,100767.65
2019-06-20T17:52:42.509Z,100773.66
2019-06-20T17:55:12.742Z,100775.77
2019-06-20T17:57:41.178Z,100775.55
2019-06-20T18:00:17.794Z,100775.41
2019-06-20T18:02:46.246Z,100786.05
2019-06-20T18:05:16.314Z,100796.44
2019-06-20T18:07:44.821Z,100790.23
2019-06-20T18:10:14.178Z,100801.86
2019-06-20T18:12:42.623Z,100797.35
2019-06-20T18:15:13.052Z,100796.30
2019-06-20T18:17:41.565Z,100791.47
2019-06-20T18:20:12.633Z,100797.72
2019-06-20T18:22:41.068Z,100804.91
2019-06-20T18:25:10.338Z,100808.19
2019-06-20T18:27:38.845Z,100813.58
2019-06-20T18:30:09.021Z,100812.55
2019-06-20T18:32:37.440Z,100812.45
2019-06-20T18:35:08.508Z,100808.51
2019-06-20T18:37:36.955Z,100808.28
2019-06-20T18:40:13.257Z,100812.66
2019-06-20T18:42:41.705Z,100822.24
2019-06-20T18:45:11.144Z,100820.28
2019-06-20T18:47:39.573Z,100825.42
2019-06-20T18:50:08.237Z,100818.83
2019-06-20T18:52:51.075Z,100818.95
2019-06-20T18:55:08.433Z,100819.43
2019-06-20T18:57:36.864Z,100830.28
2019-06-20T19:00:13.126Z,100831.62
2019-06-20T19:02:41.605Z,100831.62
2019-06-20T19:05:11.277Z,100839.95
2019-06-20T19:07:39.707Z,100847.91
2019-06-20T19:10:09.085Z,100849.55
2019-06-20T19:12:37.656Z,100860.25
2019-06-20T19:15:08.542Z,100862.49
2019-06-20T19:17:37.108Z,100865.22
2019-06-20T19:20:07.363Z,100870.55
2019-06-20T19:22:35.790Z,100866.34
2019-06-20T19:25:08.904Z,100868.34
2019-06-20T19:27:46.033Z,100870.39
2019-06-20T19:30:10.832Z,100874.73
2019-06-20T19:32:39.282Z,100872.03
2019-06-20T19:35:10.310Z,100869.50
2019-06-20T19:37:38.661Z,100874.02
2019-06-20T19:40:08.746Z,100865.83
2019-06-20T19:42:37.404Z,100881.28
2019-06-20T19:45:12.272Z,100888.11
2019-06-20T19:47:40.833Z,100883.45
2019-06-20T19:50:11.435Z,100888.84
2019-06-20T19:52:40.395Z,100892.09
2019-06-20T19:55:10.372Z,100903.66
2019-06-20T19:57:38.873Z,100902.67
2019-06-20T20:00:08.549Z,100903.20
2019-06-20T20:02:37.152Z,100906.19
2019-06-20T20:05:19.020Z,100912.42
2019-06-20T20:07:39.278Z,100915.95
2019-06-20T20:10:09.155Z,100913.05
2019-06-20T20:12:37.584Z,100916.22
2019-06-20T20:15:09.378Z,100919.12
2019-06-20T20:17:37.809Z,100922.95
2019-06-20T20:20:09.291Z,100925.08
2019-06-20T20:22:37.714Z,100933.02
2019-06-20T20:25:07.315Z,100930.88
2019-06-20T20:27:35.726Z,100923.86
2019-06-20T20:30:07.152Z,100921.95
2019-06-20T20:32:35.566Z,100930.31
2019-06-20T20:35:04.461Z,100930.75
2019-06-20T20:37:32.895Z,100923.88
2019-06-20T20:40:01.329Z,100924.95
2019-06-20T20:42:29.747Z,100941.98
2019-06-20T20:44:58.190Z,100948.08
2019-06-20T20:47:28.471Z,100945.72
2019-06-20T20:49:56.785Z,100946.35
2019-06-20T20:52:25.221Z,100946.31
2019-06-20T20:54:53.652Z,100945.09
2019-06-20T20:57:22.084Z,100951.56
2019-06-20T20:59:50.518Z,100962.50
2019-06-20T21:02:18.952Z,100960.13
2019-06-20T21:04:48.829Z,100956.32
2019-06-20T21:07:17.289Z,100965.53
2019-06-20T21:09:45.720Z,100963.08
2019-06-20T21:12:39.525Z,100968.45
2019-06-20T21:15:08.530Z,100960.44
2019-06-20T21:17:36.966Z,100962.73
2019-06-20T21:20:07.297Z,100964.20
2019-06-20T21:22:35.755Z,100961.88
2019-06-20T21:25:05.515Z,100960.27
2019-06-20T21:27:33.953Z,100967.23
2019-06-20T21:30:02.435Z,100963.49
2019-06-20T21:32:30.869Z,100971.80
2019-06-20T21:34:59.366Z,100973.06
2019-06-20T21:37:27.877Z,100977.06
2019-06-20T21:39:56.373Z,100976.70
2019-06-20T21:42:24.820Z,100981.80
2019-06-20T21:44:53.260Z,100977.12
2019-06-20T21:47:21.693Z,100979.97
2019-06-20T21:49:50.183Z,100974.69
2019-06-20T21:52:18.734Z,100973.48
2019-06-20T21:54:47.155Z,100980.92
2019-06-20T21:57:15.587Z,100983.61
2019-06-20T21:59:44.003Z,100981.80
2019-06-20T22:02:12.542Z,100977.88
2019-06-20T22:04:53.712Z,100980.71
2019-06-20T22:07:11.125Z,100983.80
2019-06-20T22:09:39.584Z,100989.91
2019-06-20T22:12:08.015Z,100992.84
2019-06-20T22:14:36.435Z,100992.30
2019-06-20T22:17:04.892Z,100999.55
2019-06-20T22:19:33.308Z,101005.23
2019-06-20T22:22:01.784Z,101001.81
2019-06-20T22:24:30.196Z,101005.41
2019-06-20T22:26:58.647Z,101008.05
2019-06-20T22:29:27.141Z,101006.72
2019-06-20T22:31:55.660Z,101012.94
2019-06-20T22:34:24.086Z,101009.27
2019-06-20T22:36:52.527Z,101015.76
2019-06-20T22:39:20.947Z,101017.48
2019-06-20T22:41:49.386Z,101015.23
2019-06-20T22:44:17.835Z,101016.73
2019-06-20T22:46:46.262Z,101033.94
2019-06-20T22:49:14.706Z,101026.57
2019-06-20T22:51:43.156Z,101032.00
2019-06-20T22:54:11.609Z,101030.55
2019-06-20T22:56:40.022Z,101032.12
2019-06-20T22:59:08.457Z,101037.19
2019-06-20T23:01:36.879Z,101040.48
2019-06-20T23:04:05.385Z,101038.86
2019-06-20T23:06:33.824Z,101034.62
2019-06-20T23:09:02.330Z,101040.73
2019-06-20T23:11:30.759Z,101036.23
2019-06-20T23:13:59.192Z,101043.17
2019-06-20T23:16:27.617Z,101041.91
2019-06-20T23:18:56.064Z,101041.06
2019-06-20T23:21:24.488Z,101037.23
2019-06-20T23:23:52.933Z,101046.23
2019-06-20T23:26:21.362Z,101047.86
2019-06-20T23:28:51.436Z,101049.23
2019-06-20T23:31:19.886Z,101053.68
2019-06-20T23:33:48.316Z,101057.65
2019-06-20T23:36:16.734Z,101052.86
2019-06-20T23:38:45.166Z,101057.30
2019-06-20T23:41:13.598Z,101056.84
2019-06-20T23:43:42.052Z,101049.30
2019-06-20T23:46:10.488Z,101048.92
2019-06-20T23:48:38.935Z,101054.34
2019-06-20T23:51:07.347Z,101061.14
2019-06-20T23:53:35.797Z,101064.78
2019-06-20T23:56:07.858Z,101073.33
2019-06-20T23:58:34.422Z,101080.20
